Kincaid, Kansas
Current Conditions -  °F | °C
As of 4:52 PM on Thursday 20 Nov 2014 (Local Time) from KCNU Reporting Station
Clear Clear  
Wind Chill: 37°   Ceiling: Unl
Heat Index: 42°   Visibility: 10mi
Dew Point: 24°   Wind: 9mph
Humidity: 49%   Direction: 60°ENE
Pressure: 30.14"   Gusts: NA
Location:  38.08°N, 95.15°W
Report Text: KCNU 202252Z AUTO 06008KT 10SM CLR 06/M04 A3014 RMK AO2 SLP212 T00561044
Loading
Personal Weather Stations






























Interactive Weather Map New forecast layout! Learn more

10-Day Weather Forecast

Advertisements
Track Severe Weather on mobile